createdAt,value
2023-08-15T00:01:10.041Z,23.71
2023-08-15T00:03:36.569Z,23.68
2023-08-15T00:06:03.280Z,23.66
2023-08-15T00:08:29.751Z,23.65
2023-08-15T00:10:56.309Z,23.62
2023-08-15T00:13:22.721Z,23.58
2023-08-15T00:15:49.135Z,23.56
2023-08-15T00:18:15.599Z,23.54
2023-08-15T00:20:42.069Z,23.49
2023-08-15T00:23:08.863Z,23.52
2023-08-15T00:25:35.397Z,23.49
2023-08-15T00:28:01.805Z,23.50
2023-08-15T00:30:28.300Z,23.46
2023-08-15T00:32:54.745Z,23.44
2023-08-15T00:35:21.201Z,23.43
2023-08-15T00:37:47.607Z,23.44
2023-08-15T00:40:14.068Z,23.43
2023-08-15T00:42:40.532Z,23.43
2023-08-15T00:45:07.825Z,23.44
2023-08-15T00:47:34.881Z,23.43
2023-08-15T00:50:03.289Z,23.43
2023-08-15T00:52:29.769Z,23.40
2023-08-15T00:54:56.582Z,23.34
2023-08-15T00:57:23.521Z,23.32
2023-08-15T00:59:50.256Z,23.30
2023-08-15T01:02:16.963Z,23.30
2023-08-15T01:04:44.222Z,23.28
2023-08-15T01:07:11.646Z,23.24
2023-08-15T01:09:38.867Z,23.24
2023-08-15T01:12:25.451Z,23.22
2023-08-15T01:15:08.165Z,23.17
2023-08-15T01:17:40.459Z,23.11
2023-08-15T01:20:09.870Z,23.09
2023-08-15T01:22:41.171Z,23.08
2023-08-15T01:25:08.005Z,23.07
2023-08-15T01:27:34.586Z,23.05
2023-08-15T01:30:01.362Z,23.03
2023-08-15T01:32:37.947Z,23.01
2023-08-15T01:35:13.249Z,22.97
2023-08-15T01:37:44.578Z,22.93
2023-08-15T01:40:12.681Z,22.91
2023-08-15T01:42:42.297Z,22.91
2023-08-15T01:45:10.546Z,22.88
2023-08-15T01:47:37.783Z,22.87
2023-08-15T01:50:04.684Z,22.83
2023-08-15T01:52:31.130Z,22.81
2023-08-15T01:54:57.589Z,22.79
2023-08-15T01:57:24.049Z,22.78
2023-08-15T01:59:50.492Z,22.76
2023-08-15T02:02:16.966Z,22.76
2023-08-15T02:04:43.390Z,22.77
2023-08-15T02:07:09.861Z,22.76
2023-08-15T02:09:36.300Z,22.74
2023-08-15T02:12:02.837Z,22.74
2023-08-15T02:14:29.279Z,22.73
2023-08-15T02:16:55.665Z,22.73
2023-08-15T02:19:22.122Z,22.70
2023-08-15T02:21:48.681Z,22.65
2023-08-15T02:24:15.217Z,22.64
2023-08-15T02:26:41.682Z,22.64
2023-08-15T02:29:08.209Z,22.67
2023-08-15T02:31:35.054Z,22.69
2023-08-15T02:34:01.490Z,22.70
2023-08-15T02:36:28.017Z,22.69
2023-08-15T02:38:54.470Z,22.69
2023-08-15T02:41:21.830Z,22.67
2023-08-15T02:43:48.323Z,22.67
2023-08-15T02:46:14.847Z,22.65
2023-08-15T02:48:42.560Z,22.63
2023-08-15T02:51:09.225Z,22.61
2023-08-15T02:53:36.870Z,22.62
2023-08-15T02:56:03.354Z,22.61
2023-08-15T02:58:29.751Z,22.58
2023-08-15T03:00:56.224Z,22.56
2023-08-15T03:03:22.766Z,22.51
2023-08-15T03:05:49.211Z,22.47
2023-08-15T03:08:15.598Z,22.44
2023-08-15T03:10:42.225Z,22.42
2023-08-15T03:13:08.693Z,22.43
2023-08-15T03:15:36.956Z,22.43
2023-08-15T03:18:03.584Z,22.41
2023-08-15T03:20:30.788Z,22.40
2023-08-15T03:22:57.179Z,22.40
2023-08-15T03:25:23.557Z,22.41
2023-08-15T03:27:49.989Z,22.42
2023-08-15T03:30:16.506Z,22.41
2023-08-15T03:32:42.977Z,22.36
2023-08-15T03:35:09.496Z,22.35
2023-08-15T03:37:36.815Z,22.34
2023-08-15T03:40:04.913Z,22.32
2023-08-15T03:42:31.521Z,22.31
2023-08-15T03:44:57.984Z,22.30
2023-08-15T03:47:24.538Z,22.27
2023-08-15T03:49:51.005Z,22.25
2023-08-15T03:52:17.406Z,22.21
2023-08-15T03:54:43.846Z,22.17
2023-08-15T03:57:10.364Z,22.16
2023-08-15T03:59:36.843Z,22.15
2023-08-15T04:02:03.396Z,22.12
2023-08-15T04:04:29.818Z,22.09
2023-08-15T04:06:56.806Z,22.09
2023-08-15T04:09:23.268Z,22.09
2023-08-15T04:11:49.778Z,22.11
2023-08-15T04:14:16.263Z,22.11
2023-08-15T04:16:42.810Z,22.10
2023-08-15T04:19:09.611Z,22.10
2023-08-15T04:21:36.047Z,22.11
2023-08-15T04:24:02.456Z,22.13
2023-08-15T04:26:28.939Z,22.09
2023-08-15T04:28:55.411Z,22.11
2023-08-15T04:31:21.934Z,22.10
2023-08-15T04:33:48.429Z,22.09
2023-08-15T04:36:14.909Z,21.99
2023-08-15T04:38:41.363Z,21.92
2023-08-15T04:41:07.909Z,21.90
2023-08-15T04:43:34.778Z,21.92
2023-08-15T04:46:01.364Z,21.95
2023-08-15T04:48:27.921Z,21.99
2023-08-15T04:50:54.338Z,22.01
2023-08-15T04:53:20.787Z,22.02
2023-08-15T04:55:47.240Z,22.07
2023-08-15T04:58:13.715Z,22.10
2023-08-15T05:00:40.278Z,22.09
2023-08-15T05:03:06.746Z,22.10
2023-08-15T05:05:33.272Z,22.14
2023-08-15T05:07:59.798Z,22.17
2023-08-15T05:10:26.896Z,22.21
2023-08-15T05:12:53.725Z,22.26
2023-08-15T05:15:20.107Z,22.32
2023-08-15T05:17:49.303Z,22.43
2023-08-15T05:20:16.218Z,22.59
2023-08-15T05:22:42.686Z,22.64
2023-08-15T05:25:09.429Z,22.78
2023-08-15T05:27:35.869Z,22.92
2023-08-15T05:30:02.330Z,23.07
2023-08-15T05:32:28.856Z,23.20
2023-08-15T05:34:55.539Z,23.25
2023-08-15T05:37:22.260Z,23.28
2023-08-15T05:39:49.080Z,23.27
2023-08-15T05:42:18.893Z,23.33
2023-08-15T05:44:46.915Z,23.40
2023-08-15T05:47:14.023Z,23.45
2023-08-15T05:49:42.280Z,23.55
2023-08-15T05:52:08.753Z,23.64
2023-08-15T05:54:35.275Z,23.69
2023-08-15T05:57:01.740Z,23.72
2023-08-15T05:59:28.248Z,23.70
2023-08-15T06:01:54.729Z,23.67
2023-08-15T06:04:21.281Z,23.62
2023-08-15T06:06:47.804Z,23.55
2023-08-15T06:09:16.969Z,23.50
2023-08-15T06:11:44.827Z,23.42
2023-08-15T06:14:11.274Z,23.40
2023-08-15T06:16:37.747Z,23.38
2023-08-15T06:19:04.396Z,23.39
2023-08-15T06:21:30.870Z,23.44
2023-08-15T06:23:57.293Z,23.47
2023-08-15T06:26:23.814Z,23.63
2023-08-15T06:28:51.281Z,23.69
2023-08-15T06:31:17.758Z,23.93
2023-08-15T06:33:44.298Z,23.96
2023-08-15T06:36:10.827Z,23.96
2023-08-15T06:38:37.419Z,24.01
2023-08-15T06:41:04.062Z,24.07
2023-08-15T06:43:30.527Z,24.14
2023-08-15T06:45:56.926Z,24.21
2023-08-15T06:48:23.317Z,24.29
2023-08-15T06:50:49.961Z,24.62
2023-08-15T06:53:16.444Z,25.00
2023-08-15T06:55:42.870Z,25.27
2023-08-15T06:58:09.341Z,25.54
2023-08-15T07:00:35.990Z,25.73
2023-08-15T07:03:02.712Z,25.80
2023-08-15T07:05:29.294Z,25.85
2023-08-15T07:07:55.762Z,25.85
2023-08-15T07:10:22.222Z,25.88
2023-08-15T07:12:48.650Z,25.95
2023-08-15T07:15:15.123Z,26.02
2023-08-15T07:17:41.723Z,25.81
2023-08-15T07:20:10.344Z,25.54
2023-08-15T07:22:37.223Z,25.44
2023-08-15T07:25:03.826Z,25.30
2023-08-15T07:27:30.312Z,25.17
2023-08-15T07:29:56.874Z,25.34
2023-08-15T07:32:23.573Z,25.66
2023-08-15T07:34:50.323Z,25.88
2023-08-15T07:37:16.891Z,25.72
2023-08-15T07:39:43.380Z,25.53
2023-08-15T07:42:09.859Z,25.44
2023-08-15T07:44:36.396Z,25.50
2023-08-15T07:47:03.048Z,25.59
2023-08-15T07:49:32.301Z,25.99
2023-08-15T07:51:58.765Z,26.51
2023-08-15T07:54:25.313Z,26.90
2023-08-15T07:56:51.764Z,27.05
2023-08-15T07:59:18.170Z,27.24
2023-08-15T08:01:44.672Z,27.24
2023-08-15T08:04:11.178Z,27.21
2023-08-15T08:06:40.924Z,26.99
2023-08-15T08:09:09.659Z,26.66
2023-08-15T08:11:36.953Z,26.45
2023-08-15T08:14:04.815Z,26.37
2023-08-15T08:16:31.590Z,26.33
2023-08-15T08:18:58.112Z,26.38
2023-08-15T08:21:24.659Z,26.50
2023-08-15T08:23:51.351Z,26.74
2023-08-15T08:26:18.838Z,26.84
2023-08-15T08:28:45.740Z,26.82
2023-08-15T08:31:12.179Z,26.99
2023-08-15T08:33:38.826Z,27.15
2023-08-15T08:36:05.385Z,27.14
2023-08-15T08:38:31.824Z,27.11
2023-08-15T08:40:58.645Z,27.00
2023-08-15T08:43:26.578Z,26.90
2023-08-15T08:45:56.256Z,26.86
2023-08-15T08:48:23.162Z,26.79
2023-08-15T08:50:49.861Z,26.75
2023-08-15T08:53:16.669Z,26.74
2023-08-15T08:55:49.134Z,26.98
2023-08-15T08:58:15.741Z,27.38
2023-08-15T09:00:42.362Z,27.64
2023-08-15T09:03:09.875Z,27.69
2023-08-15T09:05:37.110Z,27.67
2023-08-15T09:08:03.981Z,27.82
2023-08-15T09:10:30.464Z,27.68
2023-08-15T09:13:01.165Z,27.52
2023-08-15T09:15:28.133Z,27.38
2023-08-15T09:18:05.837Z,27.31
2023-08-15T09:20:32.820Z,27.25
2023-08-15T09:23:01.326Z,27.36
2023-08-15T09:25:28.760Z,27.54
2023-08-15T09:27:55.218Z,27.66
2023-08-15T09:30:22.658Z,27.72
2023-08-15T09:32:49.850Z,27.77
2023-08-15T09:35:18.837Z,27.81
2023-08-15T09:37:53.088Z,27.80
2023-08-15T09:40:23.651Z,27.77
2023-08-15T09:42:50.659Z,27.76
2023-08-15T09:45:17.511Z,27.71
2023-08-15T09:47:46.196Z,27.72
2023-08-15T09:50:14.649Z,27.79
2023-08-15T09:52:43.029Z,27.82
2023-08-15T09:55:15.272Z,27.80
2023-08-15T09:57:43.490Z,27.82
2023-08-15T10:00:18.661Z,27.86
2023-08-15T10:03:02.457Z,27.96
2023-08-15T10:05:33.122Z,28.04
2023-08-15T10:08:00.058Z,28.12
2023-08-15T10:10:32.026Z,28.14
2023-08-15T10:12:59.985Z,28.13
2023-08-15T10:15:28.502Z,28.11
2023-08-15T10:17:55.442Z,28.06
2023-08-15T10:20:22.417Z,28.03
2023-08-15T10:22:55.625Z,28.07
2023-08-15T10:25:25.270Z,28.28
2023-08-15T10:27:53.609Z,28.30
2023-08-15T10:30:30.261Z,28.26
2023-08-15T10:33:01.744Z,28.28
2023-08-15T10:35:32.263Z,28.25
2023-08-15T10:37:59.314Z,28.22
2023-08-15T10:40:41.692Z,28.20
2023-08-15T10:43:11.526Z,28.18
2023-08-15T10:45:39.893Z,28.19
2023-08-15T10:48:06.994Z,28.21
2023-08-15T10:50:34.126Z,28.23
2023-08-15T10:53:05.873Z,28.27
2023-08-15T10:55:35.935Z,28.30
2023-08-15T10:58:05.683Z,28.36
2023-08-15T11:00:34.000Z,28.53
2023-08-15T11:03:02.831Z,28.78
2023-08-15T11:05:29.993Z,29.15
2023-08-15T11:08:20.390Z,29.34
2023-08-15T11:10:51.274Z,29.28
2023-08-15T11:13:18.485Z,29.62
2023-08-15T11:15:48.028Z,29.89
2023-08-15T11:18:23.220Z,30.29
2023-08-15T11:20:52.052Z,30.57
2023-08-15T11:23:20.130Z,30.56
2023-08-15T11:25:46.532Z,30.04
2023-08-15T11:28:13.016Z,29.70
2023-08-15T11:30:39.636Z,29.45
2023-08-15T11:33:06.620Z,29.20
2023-08-15T11:35:33.223Z,29.03
2023-08-15T11:38:01.866Z,29.19
2023-08-15T11:40:28.392Z,29.26
2023-08-15T11:42:55.038Z,29.64
2023-08-15T11:45:23.958Z,29.96
2023-08-15T11:47:59.060Z,30.14
2023-08-15T11:50:42.010Z,30.13
2023-08-15T11:53:13.577Z,30.19
2023-08-15T11:55:40.859Z,30.29
2023-08-15T11:58:26.670Z,30.43
2023-08-15T12:01:13.220Z,30.53
2023-08-15T12:03:40.363Z,30.55
2023-08-15T12:06:09.161Z,30.66
2023-08-15T12:08:36.061Z,30.66
2023-08-15T12:11:09.253Z,30.71
2023-08-15T12:13:40.152Z,30.71
2023-08-15T12:16:08.966Z,30.80
2023-08-15T12:18:35.983Z,30.68
2023-08-15T12:21:05.682Z,30.58
2023-08-15T12:23:32.357Z,30.51
2023-08-15T12:25:58.853Z,30.51
2023-08-15T12:28:28.992Z,30.54
2023-08-15T12:30:56.155Z,30.60
2023-08-15T12:33:35.568Z,30.72
2023-08-15T12:36:07.741Z,30.84
2023-08-15T12:38:34.216Z,30.70
2023-08-15T12:41:00.763Z,30.54
2023-08-15T12:43:27.427Z,30.56
2023-08-15T12:45:53.978Z,30.68
2023-08-15T12:48:20.565Z,30.80
2023-08-15T12:50:47.161Z,30.59
2023-08-15T12:53:14.012Z,30.57
2023-08-15T12:55:40.560Z,30.66
2023-08-15T12:58:07.059Z,30.73
2023-08-15T13:00:33.637Z,30.66
2023-08-15T13:03:00.222Z,30.62
2023-08-15T13:05:26.856Z,30.66
2023-08-15T13:07:53.537Z,30.82
2023-08-15T13:10:20.029Z,30.82
2023-08-15T13:12:47.235Z,30.91
2023-08-15T13:15:13.774Z,30.88
2023-08-15T13:17:40.373Z,30.84
2023-08-15T13:20:07.745Z,30.92
2023-08-15T13:22:34.276Z,30.84
2023-08-15T13:25:00.975Z,30.96
2023-08-15T13:27:27.499Z,31.02
2023-08-15T13:29:54.044Z,31.03
2023-08-15T13:32:20.730Z,30.97
2023-08-15T13:34:47.399Z,30.85
2023-08-15T13:37:13.813Z,30.82
2023-08-15T13:39:40.263Z,30.78
2023-08-15T13:42:09.605Z,30.71
2023-08-15T13:44:40.225Z,30.67
2023-08-15T13:47:06.798Z,30.80
2023-08-15T13:49:33.423Z,30.85
2023-08-15T13:51:59.919Z,30.84
2023-08-15T13:54:26.450Z,30.94
2023-08-15T13:56:55.367Z,30.97
2023-08-15T13:59:22.312Z,31.01
2023-08-15T14:01:48.874Z,30.90
2023-08-15T14:04:15.317Z,30.89
2023-08-15T14:06:41.802Z,30.94
2023-08-15T14:09:08.257Z,30.87
2023-08-15T14:11:34.793Z,30.86
2023-08-15T14:14:01.234Z,30.90
2023-08-15T14:16:27.726Z,30.90
2023-08-15T14:18:54.144Z,30.89
2023-08-15T14:21:20.587Z,30.86
2023-08-15T14:23:47.821Z,30.80
2023-08-15T14:26:14.376Z,30.87
2023-08-15T14:28:40.855Z,30.97
2023-08-15T14:31:07.398Z,31.07
2023-08-15T14:33:33.958Z,31.09
2023-08-15T14:36:00.540Z,31.05
2023-08-15T14:38:27.114Z,31.08
2023-08-15T14:40:53.793Z,30.97
2023-08-15T14:43:20.262Z,30.96
2023-08-15T14:45:46.808Z,30.99
2023-08-15T14:48:13.321Z,31.06
2023-08-15T14:50:41.147Z,31.08
2023-08-15T14:53:07.678Z,30.94
2023-08-15T14:55:34.296Z,30.82
2023-08-15T14:58:01.074Z,30.71
2023-08-15T15:00:27.680Z,30.61
2023-08-15T15:02:54.275Z,30.61
2023-08-15T15:05:21.010Z,30.50
2023-08-15T15:07:47.592Z,30.43
2023-08-15T15:10:14.173Z,30.38
2023-08-15T15:12:40.972Z,30.22
2023-08-15T15:15:09.708Z,30.24
2023-08-15T15:17:36.484Z,30.20
2023-08-15T15:20:04.601Z,30.28
2023-08-15T15:22:31.193Z,30.41
2023-08-15T15:24:57.754Z,30.29
2023-08-15T15:27:24.260Z,30.36
2023-08-15T15:29:51.089Z,30.37
2023-08-15T15:32:17.744Z,30.29
2023-08-15T15:34:44.224Z,30.26
2023-08-15T15:37:10.691Z,30.19
2023-08-15T15:39:37.127Z,30.25
2023-08-15T15:42:03.855Z,30.15
2023-08-15T15:44:30.926Z,30.09
2023-08-15T15:46:57.723Z,30.01
2023-08-15T15:49:24.504Z,29.92
2023-08-15T15:51:51.001Z,29.73
2023-08-15T15:54:17.555Z,29.63
2023-08-15T15:56:44.341Z,29.54
2023-08-15T15:59:11.365Z,29.59
2023-08-15T16:01:38.151Z,29.53
2023-08-15T16:04:04.926Z,29.48
2023-08-15T16:06:31.899Z,29.41
2023-08-15T16:08:58.716Z,29.24
2023-08-15T16:11:25.693Z,29.05
2023-08-15T16:13:52.660Z,28.90
2023-08-15T16:16:19.168Z,28.85
2023-08-15T16:18:45.813Z,28.93
2023-08-15T16:21:12.557Z,28.95
2023-08-15T16:23:39.087Z,28.99
2023-08-15T16:26:05.646Z,29.06
2023-08-15T16:28:32.124Z,29.03
2023-08-15T16:30:58.609Z,28.94
2023-08-15T16:33:25.121Z,28.83
2023-08-15T16:35:51.576Z,28.75
2023-08-15T16:38:18.047Z,28.62
2023-08-15T16:40:44.529Z,28.50
2023-08-15T16:43:11.894Z,28.47
2023-08-15T16:45:39.863Z,28.53
2023-08-15T16:48:07.115Z,28.55
2023-08-15T16:50:33.595Z,28.51
2023-08-15T16:53:03.664Z,28.48
2023-08-15T16:55:47.254Z,28.47
2023-08-15T16:58:14.067Z,28.45
2023-08-15T17:00:41.116Z,28.38
2023-08-15T17:03:07.767Z,28.37
2023-08-15T17:05:34.518Z,28.31
2023-08-15T17:08:01.045Z,28.30
2023-08-15T17:10:27.951Z,28.30
2023-08-15T17:12:54.572Z,28.28
2023-08-15T17:15:21.061Z,28.30
2023-08-15T17:17:47.559Z,28.26
2023-08-15T17:20:14.065Z,28.21
2023-08-15T17:22:40.533Z,28.21
2023-08-15T17:25:07.532Z,28.17
2023-08-15T17:27:34.096Z,28.15
2023-08-15T17:30:00.546Z,28.08
2023-08-15T17:32:27.598Z,28.06
2023-08-15T17:34:54.165Z,28.00
2023-08-15T17:37:20.752Z,27.96
2023-08-15T17:39:47.232Z,27.93
2023-08-15T17:42:13.729Z,27.88
2023-08-15T17:44:40.272Z,27.81
2023-08-15T17:47:07.017Z,27.77
2023-08-15T17:49:33.783Z,27.74
2023-08-15T17:52:00.249Z,27.71
2023-08-15T17:54:27.122Z,28.45
2023-08-15T17:56:53.659Z,29.53
2023-08-15T17:59:20.216Z,30.24
2023-08-15T18:01:46.752Z,30.71
2023-08-15T18:04:13.618Z,30.52
2023-08-15T18:06:40.137Z,29.76
2023-08-15T18:09:06.652Z,28.90
2023-08-15T18:11:33.392Z,28.25
2023-08-15T18:14:01.581Z,27.86
2023-08-15T18:16:29.038Z,27.57
2023-08-15T18:18:55.663Z,27.39
2023-08-15T18:21:22.373Z,27.24
2023-08-15T18:23:48.974Z,27.15
2023-08-15T18:26:15.536Z,27.06
2023-08-15T18:28:42.079Z,26.98
2023-08-15T18:31:08.638Z,26.90
2023-08-15T18:33:35.088Z,26.84
2023-08-15T18:36:01.762Z,26.78
2023-08-15T18:38:32.541Z,26.71
2023-08-15T18:40:59.647Z,26.65
2023-08-15T18:43:26.201Z,26.60
2023-08-15T18:45:53.397Z,26.55
2023-08-15T18:48:21.465Z,26.50
2023-08-15T18:50:48.253Z,26.43
2023-08-15T18:53:14.826Z,26.37
2023-08-15T18:55:42.396Z,26.31
2023-08-15T18:58:10.388Z,26.26
2023-08-15T19:00:38.819Z,26.22
2023-08-15T19:03:05.927Z,26.18
2023-08-15T19:05:32.589Z,26.14
2023-08-15T19:07:59.816Z,26.07
2023-08-15T19:10:26.454Z,26.04
2023-08-15T19:12:53.058Z,25.99
2023-08-15T19:15:20.918Z,25.96
2023-08-15T19:17:50.858Z,25.91
2023-08-15T19:20:22.355Z,25.89
2023-08-15T19:22:49.591Z,25.85
2023-08-15T19:25:16.994Z,25.81
2023-08-15T19:27:43.842Z,25.77
2023-08-15T19:30:10.733Z,25.71
2023-08-15T19:32:37.286Z,25.67
2023-08-15T19:35:04.734Z,25.64
2023-08-15T19:37:37.912Z,25.62
2023-08-15T19:40:07.861Z,25.56
2023-08-15T19:42:43.242Z,25.51
2023-08-15T19:45:11.289Z,25.47
2023-08-15T19:47:38.952Z,25.42
2023-08-15T19:50:06.859Z,25.36
2023-08-15T19:52:34.678Z,25.30
2023-08-15T19:55:01.827Z,25.24
2023-08-15T19:57:28.293Z,25.19
2023-08-15T19:59:54.848Z,25.15
2023-08-15T20:02:21.826Z,25.14
2023-08-15T20:04:48.778Z,25.13
2023-08-15T20:07:15.285Z,25.10
2023-08-15T20:09:46.649Z,25.06
2023-08-15T20:12:18.471Z,25.03
2023-08-15T20:14:44.934Z,24.99
2023-08-15T20:17:11.662Z,24.95
2023-08-15T20:19:38.131Z,24.92
2023-08-15T20:22:04.801Z,24.89
2023-08-15T20:24:32.129Z,24.89
2023-08-15T20:26:58.589Z,24.83
2023-08-15T20:29:24.998Z,24.79
2023-08-15T20:31:51.585Z,24.75
2023-08-15T20:34:18.068Z,24.75
2023-08-15T20:36:44.612Z,24.71
2023-08-15T20:39:11.082Z,24.66
2023-08-15T20:41:37.573Z,24.59
2023-08-15T20:44:04.132Z,24.54
2023-08-15T20:46:38.815Z,24.50
2023-08-15T20:49:05.451Z,24.51
2023-08-15T20:51:32.420Z,24.50
2023-08-15T20:53:59.867Z,24.48
2023-08-15T20:56:29.659Z,24.43
2023-08-15T20:58:56.593Z,24.39
2023-08-15T21:01:23.287Z,24.36
2023-08-15T21:03:50.146Z,24.34
2023-08-15T21:06:16.950Z,24.31
2023-08-15T21:08:43.528Z,24.26
2023-08-15T21:11:10.049Z,24.23
2023-08-15T21:13:36.670Z,24.18
2023-08-15T21:16:03.161Z,24.15
2023-08-15T21:18:29.616Z,24.14
2023-08-15T21:20:56.077Z,24.12
2023-08-15T21:23:22.581Z,24.12
2023-08-15T21:25:49.013Z,24.11
2023-08-15T21:28:17.153Z,24.06
2023-08-15T21:30:44.091Z,24.02
2023-08-15T21:33:11.015Z,23.96
2023-08-15T21:35:37.443Z,23.91
2023-08-15T21:38:04.017Z,23.88
2023-08-15T21:40:30.415Z,23.88
2023-08-15T21:42:56.934Z,23.87
2023-08-15T21:45:23.571Z,23.83
2023-08-15T21:47:50.093Z,23.82
2023-08-15T21:50:16.574Z,23.80
2023-08-15T21:52:43.080Z,23.80
2023-08-15T21:55:09.797Z,23.79
2023-08-15T21:57:36.276Z,23.76
2023-08-15T22:00:02.797Z,23.72
2023-08-15T22:02:32.334Z,23.68
2023-08-15T22:04:59.490Z,23.65
2023-08-15T22:07:25.943Z,23.61
2023-08-15T22:09:52.379Z,23.60
2023-08-15T22:12:18.791Z,23.60
2023-08-15T22:14:45.176Z,23.61
2023-08-15T22:17:11.645Z,23.60
2023-08-15T22:19:38.252Z,23.60
2023-08-15T22:25:51.934Z,23.50
2023-08-15T22:28:18.612Z,23.47
2023-08-15T22:30:45.503Z,23.36
2023-08-15T22:33:12.014Z,23.25
2023-08-15T22:35:39.789Z,23.20
2023-08-15T22:38:06.288Z,23.20
2023-08-15T22:40:32.809Z,23.23
2023-08-15T22:42:59.238Z,23.23
2023-08-15T22:45:25.699Z,23.28
2023-08-15T22:47:52.361Z,23.24
2023-08-15T22:50:19.216Z,23.24
2023-08-15T22:52:45.993Z,23.24
2023-08-15T22:55:12.400Z,23.25
2023-08-15T22:57:38.887Z,23.23
2023-08-15T23:00:06.048Z,23.18
2023-08-15T23:02:32.480Z,23.13
2023-08-15T23:04:58.938Z,23.13
2023-08-15T23:07:25.591Z,23.13
2023-08-15T23:09:52.149Z,23.11
2023-08-15T23:12:18.628Z,23.10
2023-08-15T23:14:45.082Z,23.01
2023-08-15T23:17:11.637Z,22.90
2023-08-15T23:19:38.098Z,22.75
2023-08-15T23:22:04.636Z,22.68
2023-08-15T23:24:31.161Z,22.62
2023-08-15T23:26:57.756Z,22.64
2023-08-15T23:29:24.262Z,22.66
2023-08-15T23:31:50.758Z,22.64
2023-08-15T23:34:17.841Z,22.64
2023-08-15T23:36:44.269Z,22.61
2023-08-15T23:39:10.753Z,22.60
2023-08-15T23:41:37.150Z,22.57
2023-08-15T23:44:03.775Z,22.55
2023-08-15T23:46:30.257Z,22.56
2023-08-15T23:48:56.889Z,22.57
2023-08-15T23:51:23.482Z,22.58
2023-08-15T23:53:51.333Z,22.53
2023-08-15T23:56:17.768Z,22.47
2023-08-15T23:58:45.926Z,22.46
